createdAt,value
2023-01-29T00:00:15.487Z,5.50
2023-01-29T00:02:44.107Z,5.50
2023-01-29T00:05:27.136Z,5.50
2023-01-29T00:07:58.347Z,5.40
2023-01-29T00:10:27.448Z,5.50
2023-01-29T00:12:56.192Z,5.50
2023-01-29T00:15:24.685Z,5.40
2023-01-29T00:17:53.036Z,5.40
2023-01-29T00:20:21.458Z,5.40
2023-01-29T00:22:49.849Z,5.70
2023-01-29T00:25:19.531Z,5.40
2023-01-29T00:27:47.912Z,5.40
2023-01-29T00:30:19.779Z,5.40
2023-01-29T00:32:48.692Z,5.40
2023-01-29T00:35:17.159Z,5.40
2023-01-29T00:37:45.528Z,5.40
2023-01-29T00:40:15.238Z,5.70
2023-01-29T00:43:04.862Z,5.40
2023-01-29T00:45:33.710Z,5.40
2023-01-29T00:48:02.088Z,5.40
2023-01-29T00:50:31.103Z,5.40
2023-01-29T00:52:59.638Z,5.40
2023-01-29T00:55:27.981Z,5.40
2023-01-29T00:57:57.757Z,5.40
2023-01-29T01:00:26.351Z,5.40
2023-01-29T01:03:05.602Z,5.40
2023-01-29T01:05:34.444Z,5.30
2023-01-29T01:08:02.921Z,5.30
2023-01-29T01:10:33.012Z,5.30
2023-01-29T01:13:05.305Z,5.30
2023-01-29T01:15:37.237Z,5.60
2023-01-29T01:18:06.527Z,5.30
2023-01-29T01:20:37.092Z,5.30
2023-01-29T01:23:05.548Z,5.30
2023-01-29T01:25:34.514Z,5.30
2023-01-29T01:28:04.276Z,5.30
2023-01-29T01:30:33.076Z,5.50
2023-01-29T01:33:02.172Z,5.20
2023-01-29T01:35:30.634Z,5.20
2023-01-29T01:37:58.959Z,5.20
2023-01-29T01:40:27.807Z,5.20
2023-01-29T01:42:58.998Z,5.30
2023-01-29T01:45:31.344Z,5.20
2023-01-29T01:48:05.782Z,5.50
2023-01-29T01:50:38.144Z,5.20
2023-01-29T01:53:10.907Z,5.20
2023-01-29T01:55:45.435Z,5.20
2023-01-29T01:58:20.167Z,5.20
2023-01-29T02:00:50.378Z,5.20
2023-01-29T02:03:38.281Z,5.20
2023-01-29T02:06:24.594Z,5.20
2023-01-29T02:09:17.390Z,5.20
2023-01-29T02:11:45.849Z,5.10
2023-01-29T02:14:14.189Z,5.10
2023-01-29T02:16:43.946Z,5.10
2023-01-29T02:19:20.808Z,5.10
2023-01-29T02:22:30.203Z,5.10
2023-01-29T02:25:27.834Z,5.10
2023-01-29T02:28:37.709Z,5.50
2023-01-29T02:31:14.979Z,5.10
2023-01-29T02:33:53.293Z,5.10
2023-01-29T02:36:33.275Z,5.10
2023-01-29T02:39:11.965Z,5.20
2023-01-29T02:41:44.985Z,5.10
2023-01-29T02:44:23.381Z,5.10
2023-01-29T02:46:59.353Z,5.10
2023-01-29T02:49:34.547Z,5.10
2023-01-29T02:52:11.136Z,5.10
2023-01-29T02:54:46.756Z,5.10
2023-01-29T02:57:22.891Z,5.10
2023-01-29T02:59:58.502Z,5.10
2023-01-29T03:02:34.734Z,5.10
2023-01-29T03:05:10.354Z,5.40
2023-01-29T03:07:44.789Z,5.10
2023-01-29T03:10:24.469Z,5.30
2023-01-29T03:12:56.987Z,5.10
2023-01-29T03:15:31.579Z,5.10
2023-01-29T03:18:22.501Z,5.10
2023-01-29T03:20:58.524Z,5.40
2023-01-29T03:23:48.666Z,5.40
2023-01-29T03:26:37.371Z,5.00
2023-01-29T03:29:24.805Z,5.00
2023-01-29T03:32:06.657Z,5.00
2023-01-29T03:34:43.684Z,5.00
2023-01-29T03:37:19.919Z,5.00
2023-01-29T03:39:48.690Z,5.00
2023-01-29T03:42:25.707Z,4.90
2023-01-29T03:45:02.396Z,5.20
2023-01-29T03:47:47.499Z,4.90
2023-01-29T03:50:33.923Z,4.90
2023-01-29T03:53:11.423Z,5.00
2023-01-29T03:55:49.369Z,4.90
2023-01-29T03:58:26.465Z,5.10
2023-01-29T04:00:59.674Z,4.90
2023-01-29T04:03:35.326Z,4.90
2023-01-29T04:06:12.750Z,4.90
2023-01-29T04:08:53.701Z,4.90
2023-01-29T04:11:24.615Z,4.90
2023-01-29T04:13:53.723Z,5.10
2023-01-29T04:16:27.590Z,4.90
2023-01-29T04:19:11.720Z,4.90
2023-01-29T04:21:44.333Z,4.90
2023-01-29T04:24:14.794Z,4.90
2023-01-29T04:26:59.230Z,4.90
2023-01-29T04:29:44.717Z,5.10
2023-01-29T04:32:23.260Z,4.80
2023-01-29T04:35:02.762Z,4.80
2023-01-29T04:37:41.397Z,4.80
2023-01-29T04:40:22.536Z,4.80
2023-01-29T04:43:01.208Z,4.80
2023-01-29T04:45:40.189Z,4.80
2023-01-29T04:48:21.417Z,4.80
2023-01-29T04:51:00.479Z,4.80
2023-01-29T04:53:37.945Z,4.80
2023-01-29T04:56:13.481Z,4.80
2023-01-29T04:58:45.696Z,4.80
2023-01-29T05:01:18.264Z,4.80
2023-01-29T05:03:51.762Z,4.80
2023-01-29T05:06:23.048Z,4.80
2023-01-29T05:08:52.751Z,4.80
2023-01-29T05:11:21.853Z,4.80
2023-01-29T05:13:50.550Z,4.80
2023-01-29T05:16:24.104Z,4.80
2023-01-29T05:18:53.596Z,4.80
2023-01-29T05:21:25.003Z,5.00
2023-01-29T05:24:18.479Z,4.80
2023-01-29T05:27:07.584Z,4.80
2023-01-29T05:29:36.135Z,4.90
2023-01-29T05:32:05.238Z,4.70
2023-01-29T05:34:34.352Z,5.00
2023-01-29T05:37:04.476Z,4.70
2023-01-29T05:39:32.933Z,4.70
2023-01-29T05:42:01.423Z,4.70
2023-01-29T05:44:29.811Z,4.70
2023-01-29T05:46:58.201Z,4.90
2023-01-29T05:49:26.679Z,4.90
2023-01-29T05:51:55.051Z,4.70
2023-01-29T05:54:24.836Z,4.70
2023-01-29T05:56:53.344Z,4.90
2023-01-29T05:59:21.944Z,4.80
2023-01-29T06:01:50.465Z,4.70
2023-01-29T06:04:18.851Z,4.70
2023-01-29T06:06:49.767Z,4.70
2023-01-29T06:09:18.156Z,4.80
2023-01-29T06:11:47.997Z,4.70
2023-01-29T06:14:16.473Z,4.70
2023-01-29T06:16:44.893Z,4.70
2023-01-29T06:19:13.330Z,4.70
2023-01-29T06:21:41.769Z,4.70
2023-01-29T06:24:10.841Z,4.70
2023-01-29T06:26:39.341Z,4.90
2023-01-29T06:29:09.099Z,4.70
2023-01-29T06:31:39.309Z,4.60
2023-01-29T06:34:08.736Z,4.60
2023-01-29T06:36:37.356Z,4.60
2023-01-29T06:39:06.254Z,4.60
2023-01-29T06:41:35.536Z,4.60
2023-01-29T06:44:04.020Z,4.70
2023-01-29T06:46:34.561Z,4.60
2023-01-29T06:49:03.003Z,4.70
2023-01-29T06:51:31.499Z,4.60
2023-01-29T06:54:00.148Z,4.60
2023-01-29T06:56:28.720Z,4.80
2023-01-29T06:58:57.195Z,4.60
2023-01-29T07:01:35.675Z,4.60
2023-01-29T07:04:06.490Z,4.80
2023-01-29T07:06:36.152Z,4.60
2023-01-29T07:09:04.978Z,4.80
2023-01-29T07:11:35.512Z,4.60
2023-01-29T07:14:03.942Z,4.80
2023-01-29T07:16:32.422Z,4.60
2023-01-29T07:19:00.854Z,4.60
2023-01-29T07:21:30.612Z,4.60
2023-01-29T07:23:59.063Z,4.60
2023-01-29T07:26:27.515Z,4.60
2023-01-29T07:28:56.191Z,4.80
2023-01-29T07:31:24.702Z,4.60
2023-01-29T07:33:53.250Z,4.70
2023-01-29T07:36:21.705Z,4.60
2023-01-29T07:38:52.516Z,4.60
2023-01-29T07:41:21.089Z,4.60
2023-01-29T07:43:49.857Z,4.60
2023-01-29T07:46:18.329Z,4.60
2023-01-29T07:48:46.843Z,4.60
2023-01-29T07:51:17.101Z,4.60
2023-01-29T07:53:45.620Z,4.60
2023-01-29T07:56:15.537Z,4.80
2023-01-29T07:58:44.064Z,4.60
2023-01-29T08:01:12.635Z,4.60
2023-01-29T08:03:41.151Z,4.60
2023-01-29T08:06:09.746Z,4.90
2023-01-29T08:08:38.278Z,4.80
2023-01-29T08:11:07.098Z,4.60
2023-01-29T08:13:36.979Z,4.60
2023-01-29T08:16:06.890Z,4.80
2023-01-29T08:18:35.349Z,4.60
2023-01-29T08:21:03.847Z,4.80
2023-01-29T08:23:32.408Z,4.80
2023-01-29T08:26:00.895Z,4.60
2023-01-29T08:28:29.364Z,4.60
2023-01-29T08:30:59.468Z,4.60
2023-01-29T08:33:39.059Z,4.60
2023-01-29T08:36:09.689Z,4.60
2023-01-29T08:38:38.246Z,4.60
2023-01-29T08:41:07.668Z,4.60
2023-01-29T08:43:37.121Z,4.60
2023-01-29T08:46:08.361Z,4.60
2023-01-29T08:48:37.052Z,4.80
2023-01-29T08:51:05.939Z,4.60
2023-01-29T08:53:34.532Z,4.60
2023-01-29T08:56:03.062Z,4.60
2023-01-29T08:58:31.585Z,4.60
2023-01-29T09:01:09.198Z,4.80
2023-01-29T09:03:40.923Z,4.60
2023-01-29T09:06:11.371Z,4.60
2023-01-29T09:08:43.056Z,4.60
2023-01-29T09:11:11.726Z,4.80
2023-01-29T09:13:40.326Z,4.70
2023-01-29T09:16:11.414Z,4.70
2023-01-29T09:18:39.836Z,4.90
2023-01-29T09:21:08.311Z,4.80
2023-01-29T09:23:37.111Z,4.70
2023-01-29T09:26:05.982Z,4.70
2023-01-29T09:28:34.523Z,4.70
2023-01-29T09:31:03.753Z,4.70
2023-01-29T09:33:33.705Z,5.00
2023-01-29T09:36:04.470Z,5.00
2023-01-29T09:38:33.003Z,4.70
2023-01-29T09:41:13.585Z,4.80
2023-01-29T09:43:48.518Z,4.80
2023-01-29T09:46:22.475Z,5.00
2023-01-29T09:49:00.052Z,4.80
2023-01-29T09:51:35.489Z,4.80
2023-01-29T09:54:17.582Z,4.80
2023-01-29T09:56:47.429Z,4.80
2023-01-29T09:59:24.327Z,4.90
2023-01-29T10:02:07.963Z,5.10
2023-01-29T10:05:15.037Z,5.10
2023-01-29T10:08:28.052Z,4.90
2023-01-29T10:11:08.267Z,4.90
2023-01-29T10:13:46.484Z,5.00
2023-01-29T10:16:34.410Z,5.00
2023-01-29T10:19:44.894Z,5.00
2023-01-29T10:22:50.450Z,5.00
2023-01-29T10:25:21.683Z,5.00
2023-01-29T10:27:53.859Z,5.00
2023-01-29T10:30:31.234Z,5.30
2023-01-29T10:33:04.461Z,5.30
2023-01-29T10:35:37.641Z,5.10
2023-01-29T10:38:27.393Z,5.10
2023-01-29T10:41:09.570Z,5.10
2023-01-29T10:43:47.949Z,5.10
2023-01-29T10:46:33.752Z,5.10
2023-01-29T10:49:16.608Z,5.30
2023-01-29T10:52:04.731Z,5.10
2023-01-29T10:54:59.367Z,5.10
2023-01-29T10:57:48.134Z,5.10
2023-01-29T11:00:23.960Z,5.10
2023-01-29T11:02:53.804Z,5.20
2023-01-29T11:05:30.715Z,5.20
2023-01-29T11:08:06.672Z,5.30
2023-01-29T11:10:43.480Z,5.20
2023-01-29T11:13:16.464Z,5.20
2023-01-29T11:15:45.670Z,5.40
2023-01-29T14:11:34.408Z,5.50
2023-01-29T14:14:42.883Z,5.50
2023-01-29T14:17:13.884Z,5.50
2023-01-29T14:19:50.205Z,5.50
2023-01-29T14:22:24.336Z,5.50
2023-01-29T14:24:57.516Z,5.70
2023-01-29T14:27:27.237Z,5.50
2023-01-29T14:30:02.438Z,5.70
2023-01-29T14:32:32.493Z,5.50
2023-01-29T14:35:04.196Z,5.50
2023-01-29T14:37:36.412Z,5.50
2023-01-29T14:40:22.904Z,5.60
2023-01-29T14:43:00.888Z,5.60
2023-01-29T14:45:31.852Z,5.70
2023-01-29T14:48:37.521Z,5.60
2023-01-29T14:51:12.326Z,5.60
2023-01-29T14:54:04.075Z,5.60
2023-01-29T14:56:36.698Z,5.60
2023-01-29T14:59:17.829Z,5.60
2023-01-29T15:01:52.835Z,5.60
2023-01-29T15:04:28.157Z,5.70
2023-01-29T15:07:02.791Z,5.70
2023-01-29T15:09:44.064Z,5.50
2023-01-29T15:12:25.893Z,5.50
2023-01-29T15:15:07.477Z,5.60
2023-01-29T15:17:43.370Z,5.50
2023-01-29T15:20:34.450Z,5.60
2023-01-29T15:23:04.223Z,5.60
2023-01-29T15:25:37.116Z,5.60
2023-01-29T15:28:10.246Z,5.60
2023-01-29T15:30:43.208Z,5.50
2023-01-29T15:33:14.379Z,5.50
2023-01-29T15:35:44.526Z,5.50
2023-01-29T15:38:21.401Z,5.50
2023-01-29T15:40:57.624Z,5.50
2023-01-29T15:43:35.708Z,5.50
2023-01-29T15:46:11.242Z,5.50
2023-01-29T15:48:43.160Z,5.50
2023-01-29T15:51:19.450Z,5.50
2023-01-29T15:53:53.191Z,5.50
2023-01-29T15:56:27.880Z,5.50
2023-01-29T15:58:59.355Z,5.50
2023-01-29T16:01:28.947Z,5.50
2023-01-29T16:04:01.587Z,5.50
2023-01-29T16:06:37.384Z,5.50
2023-01-29T16:09:07.257Z,5.50
2023-01-29T16:11:36.719Z,5.50
2023-01-29T16:14:06.626Z,5.50
2023-01-29T16:16:35.361Z,5.50
2023-01-29T16:19:14.960Z,5.50
2023-01-29T16:21:47.198Z,5.50
2023-01-29T16:24:22.385Z,5.50
2023-01-29T16:26:56.447Z,5.40
2023-01-29T16:29:31.748Z,5.40
2023-01-29T16:32:02.695Z,5.40
2023-01-29T16:34:33.828Z,5.30
2023-01-29T16:37:08.309Z,5.50
2023-01-29T16:39:40.370Z,5.40
2023-01-29T16:42:28.583Z,5.30
2023-01-29T16:45:09.878Z,5.30
2023-01-29T16:47:42.275Z,5.40
2023-01-29T16:50:36.135Z,5.30
2023-01-29T16:53:19.848Z,5.30
2023-01-29T16:55:49.931Z,5.40
2023-01-29T16:58:21.457Z,5.30
2023-01-29T17:00:54.002Z,5.20
2023-01-29T17:03:25.918Z,5.20
2023-01-29T17:05:54.887Z,5.30
2023-01-29T17:08:28.169Z,5.20
2023-01-29T17:10:56.663Z,5.20
2023-01-29T17:13:31.284Z,5.20
2023-01-29T17:16:05.326Z,5.20
2023-01-29T17:18:33.741Z,5.20
2023-01-29T17:21:02.133Z,5.10
2023-01-29T17:23:32.031Z,5.10
2023-01-29T17:26:02.826Z,5.10
2023-01-29T17:28:31.875Z,5.10
2023-01-29T17:31:06.245Z,5.10
2023-01-29T17:33:36.103Z,5.10
2023-01-29T17:36:05.101Z,5.10
2023-01-29T17:38:35.608Z,5.00
2023-01-29T17:41:08.839Z,5.00
2023-01-29T17:43:37.193Z,5.00
2023-01-29T17:46:05.990Z,5.00
2023-01-29T17:48:34.472Z,5.00
2023-01-29T17:51:05.615Z,5.00
2023-01-29T17:53:45.159Z,4.90
2023-01-29T17:56:19.964Z,4.90
2023-01-29T17:58:48.401Z,4.90
2023-01-29T18:01:17.104Z,5.00
2023-01-29T18:03:45.511Z,4.90
2023-01-29T18:06:24.645Z,4.90
2023-01-29T18:08:54.608Z,5.00
2023-01-29T18:11:23.066Z,5.00
2023-01-29T18:13:52.353Z,4.90
2023-01-29T18:16:22.088Z,4.90
2023-01-29T18:18:51.173Z,4.80
2023-01-29T18:21:19.939Z,4.80
2023-01-29T18:23:48.346Z,4.80
2023-01-29T18:26:18.546Z,4.90
2023-01-29T18:28:46.958Z,4.80
2023-01-29T18:31:15.398Z,4.90
2023-01-29T18:33:43.843Z,4.70
2023-01-29T18:36:12.375Z,4.70
2023-01-29T18:38:40.880Z,4.80
2023-01-29T18:41:11.619Z,4.70
2023-01-29T18:43:43.097Z,4.80
2023-01-29T18:46:12.337Z,4.80
2023-01-29T18:48:42.651Z,4.70
2023-01-29T18:51:11.349Z,4.70
2023-01-29T18:53:40.070Z,4.60
2023-01-29T18:56:09.576Z,4.60
2023-01-29T18:58:38.329Z,4.70
2023-01-29T19:01:11.988Z,4.80
2023-01-29T19:03:41.736Z,4.70
2023-01-29T19:06:12.647Z,4.70
2023-01-29T19:08:42.986Z,4.60
2023-01-29T19:11:12.640Z,4.60
2023-01-29T19:13:42.576Z,4.70
2023-01-29T19:16:13.603Z,4.60
2023-01-29T19:18:42.488Z,4.60
2023-01-29T19:21:13.253Z,4.60
2023-01-29T19:23:42.378Z,4.60
2023-01-29T19:26:11.628Z,4.60
2023-01-29T19:28:40.565Z,4.60
2023-01-29T19:31:11.468Z,4.60
2023-01-29T19:33:40.061Z,4.70
2023-01-29T19:36:09.418Z,4.60
2023-01-29T19:38:38.771Z,4.60
2023-01-29T19:41:07.646Z,4.60
2023-01-29T19:43:38.209Z,4.70
2023-01-29T19:46:07.515Z,4.60
2023-01-29T19:48:37.511Z,4.60
2023-01-29T19:51:09.545Z,4.60
2023-01-29T19:53:38.766Z,4.60
2023-01-29T19:56:09.872Z,4.60
2023-01-29T19:58:38.627Z,4.70
2023-01-29T20:01:13.877Z,4.60
2023-01-29T20:03:46.483Z,4.60
2023-01-29T20:06:17.079Z,4.60
2023-01-29T20:08:46.758Z,4.60
2023-01-29T20:11:15.788Z,4.60
2023-01-29T20:13:44.653Z,4.60
2023-01-29T20:16:13.201Z,4.60
2023-01-29T20:18:43.079Z,4.70
2023-01-29T20:21:14.818Z,4.60
2023-01-29T20:23:45.689Z,4.60
2023-01-29T20:26:17.448Z,4.60
2023-01-29T20:28:48.385Z,4.70
2023-01-29T20:31:17.741Z,4.60
2023-01-29T20:33:47.471Z,4.60
2023-01-29T20:36:15.900Z,4.60
2023-01-29T20:38:44.690Z,4.70
2023-01-29T20:41:16.037Z,5.00
2023-01-29T20:43:44.652Z,4.90
2023-01-29T20:46:13.766Z,4.70
2023-01-29T20:48:42.922Z,4.70
2023-01-29T20:51:18.484Z,4.70
2023-01-29T20:53:48.605Z,4.90
2023-01-29T20:56:18.310Z,4.70
2023-01-29T20:58:53.003Z,4.70
2023-01-29T21:01:22.081Z,4.70
2023-01-29T21:03:50.404Z,4.60
2023-01-29T21:06:20.134Z,4.60
2023-01-29T21:08:48.426Z,4.60
2023-01-29T21:11:16.789Z,4.60
2023-01-29T21:13:46.848Z,4.60
2023-01-29T21:16:15.266Z,4.90
2023-01-29T21:18:43.525Z,4.60
2023-01-29T21:21:11.956Z,4.60
2023-01-29T21:23:41.630Z,4.60
2023-01-29T21:26:10.038Z,4.60
2023-01-29T21:28:38.343Z,4.60
2023-01-29T21:31:09.984Z,4.60
2023-01-29T21:33:38.781Z,4.60
2023-01-29T21:36:10.013Z,4.60
2023-01-29T21:38:38.664Z,4.60
2023-01-29T21:41:10.418Z,4.70
2023-01-29T21:43:39.019Z,4.60
2023-01-29T21:46:11.953Z,4.60
2023-01-29T21:48:41.536Z,4.60
2023-01-29T21:51:09.899Z,4.60
2023-01-29T21:53:38.226Z,4.60
2023-01-29T21:56:08.439Z,4.60
2023-01-29T21:58:36.787Z,4.60
2023-01-29T22:01:28.094Z,4.60
2023-01-29T22:03:55.004Z,4.60
2023-01-29T22:06:23.307Z,4.60
2023-01-29T22:08:51.940Z,4.60
2023-01-29T22:11:21.725Z,4.60
2023-01-29T22:13:50.003Z,4.60
2023-01-29T22:16:19.012Z,4.60
2023-01-29T22:18:47.596Z,4.60
2023-01-29T22:21:16.043Z,4.60
2023-01-29T22:23:45.253Z,4.90
2023-01-29T22:26:13.590Z,4.60
2023-01-29T22:28:43.465Z,4.70
2023-01-29T22:31:12.212Z,4.90
2023-01-29T22:33:40.576Z,4.90
2023-01-29T22:36:10.007Z,4.70
2023-01-29T22:38:38.349Z,4.70
2023-01-29T22:41:06.744Z,4.80
2023-01-29T22:43:35.110Z,4.70
2023-01-29T22:46:08.763Z,4.70
2023-01-29T22:48:37.203Z,4.70
2023-01-29T22:51:12.041Z,4.70
2023-01-29T22:53:42.341Z,4.70
2023-01-29T22:56:11.800Z,4.70
2023-01-29T22:58:41.187Z,4.70
2023-01-29T23:01:11.678Z,4.70
2023-01-29T23:03:40.003Z,4.70
2023-01-29T23:06:08.349Z,4.80
2023-01-29T23:08:36.670Z,5.00
2023-01-29T23:11:15.046Z,4.70
2023-01-29T23:13:44.576Z,4.70
2023-01-29T23:16:40.571Z,4.70
2023-01-29T23:19:09.135Z,4.70
2023-01-29T23:21:37.482Z,4.60
2023-01-29T23:24:07.150Z,4.80
2023-01-29T23:26:52.769Z,4.70
2023-01-29T23:29:21.293Z,4.60
2023-01-29T23:31:51.036Z,4.60
2023-01-29T23:34:20.404Z,4.90
2023-01-29T23:36:48.906Z,4.70
2023-01-29T23:39:17.720Z,4.60
2023-01-29T23:41:46.033Z,4.60
2023-01-29T23:44:14.366Z,4.90
2023-01-29T23:46:42.723Z,4.60
2023-01-29T23:49:12.507Z,4.60
2023-01-29T23:51:40.835Z,4.60
2023-01-29T23:54:09.306Z,4.60
2023-01-29T23:56:37.606Z,4.70
2023-01-29T23:59:05.950Z,4.70
